In Rescue
 
Open Full Screen Window  High Contrast Mode
Wind Gusting 00 knots
08
April 02, 2020 11:58 PM CDT
Present Weather: Light Snow
Weather Information
Wind Direction
  330 °
Wind Speed
  08 kt (9 mph)
Wind Gust
  00 kt (0 mph)
Altimeter
30.10 in
Visibility
1 1/4 SM
Temperature
-07° C
19° F
Dewpoint
-10° C
14° F
Humidity
79%
1hr Rain Fall
00.00 in.
24hr Rain Fall
00.11 in.
Sky Condition
Overcast @ 1,300 ft
Broken @ 900 ft
Broken @ 200 ft
LIFR

METAR KJKJ 030458Z AUTO 33008KT 1 1/4SM -SN BKN002 BKN009 OVC013 M07/M10 A3010 RMK AO2

FAA Disclaimer: The data displayed is for advisory purposes only and is not to be used for flight planning or operations.